createdAt,value
2019-01-06T00:01:53.813Z,19.73
2019-01-06T00:04:47.318Z,18.67
2019-01-06T00:07:36.258Z,19.33
2019-01-06T00:10:26.637Z,19.73
2019-01-06T00:13:15.440Z,18.70
2019-01-06T00:16:00.332Z,18.37
2019-01-06T00:19:02.737Z,19.60
2019-01-06T00:21:55.546Z,20.10
2019-01-06T00:25:03.896Z,18.40
2019-01-06T00:27:53.035Z,18.53
2019-01-06T00:30:41.392Z,19.70
2019-01-06T00:33:43.629Z,17.63
2019-01-06T00:36:45.795Z,18.47
2019-01-06T00:39:42.049Z,18.17
2019-01-06T00:42:31.062Z,18.30
2019-01-06T00:45:19.995Z,17.90
2019-01-06T00:48:20.217Z,18.43
2019-01-06T00:51:10.219Z,16.73
2019-01-06T00:53:59.034Z,16.33
2019-01-06T00:56:49.097Z,15.90
2019-01-06T00:59:37.930Z,16.87
2019-01-06T01:02:46.185Z,15.00
2019-01-06T01:05:51.556Z,15.40
2019-01-06T01:08:44.157Z,14.90
2019-01-06T01:11:32.972Z,14.67
2019-01-06T01:14:21.551Z,14.87
2019-01-06T01:17:29.814Z,14.63
2019-01-06T01:20:14.938Z,14.30
2019-01-06T01:23:00.342Z,14.50
2019-01-06T01:26:08.898Z,14.40
2019-01-06T01:29:04.834Z,15.07
2019-01-06T01:32:04.010Z,14.20
2019-01-06T01:34:54.301Z,15.37
2019-01-06T01:37:40.833Z,13.10
2019-01-06T01:40:36.989Z,14.23
2019-01-06T01:43:39.189Z,15.17
2019-01-06T01:46:38.581Z,15.00
2019-01-06T01:49:47.260Z,14.27
2019-01-06T01:52:36.041Z,14.63
2019-01-06T01:55:24.930Z,14.73
2019-01-06T01:58:23.971Z,14.67
2019-01-06T02:01:14.684Z,14.53
2019-01-06T02:04:16.832Z,14.87
2019-01-06T02:07:04.067Z,14.70
2019-01-06T02:10:06.139Z,13.67
2019-01-06T02:12:56.732Z,13.50
2019-01-06T02:15:52.846Z,13.97
2019-01-06T02:18:41.976Z,13.80
2019-01-06T02:21:35.180Z,14.57
2019-01-06T02:24:34.180Z,14.90
2019-01-06T02:27:22.762Z,14.90
2019-01-06T02:30:11.664Z,15.60
2019-01-06T02:33:10.519Z,15.00
2019-01-06T02:36:09.276Z,15.03
2019-01-06T02:39:02.088Z,14.00
2019-01-06T02:42:09.259Z,14.67
2019-01-06T02:45:07.667Z,13.97
2019-01-06T02:48:04.033Z,16.77
2019-01-06T02:50:56.522Z,15.30
2019-01-06T02:53:45.612Z,15.33
2019-01-06T02:56:35.645Z,15.70
2019-01-06T02:59:28.890Z,15.47
2019-01-06T03:02:17.836Z,14.53
2019-01-06T03:05:08.096Z,16.90
2019-01-06T03:08:07.842Z,16.40
2019-01-06T03:11:02.459Z,15.77
2019-01-06T03:14:04.630Z,16.43
2019-01-06T03:16:53.372Z,16.53
2019-01-06T03:19:52.566Z,15.23
2019-01-06T03:22:41.951Z,16.90
2019-01-06T03:25:47.218Z,16.37
2019-01-06T03:28:42.808Z,17.63
2019-01-06T03:31:39.027Z,17.20
2019-01-06T03:34:24.660Z,16.63
2019-01-06T03:37:30.057Z,16.63
2019-01-06T03:40:26.299Z,17.23
2019-01-06T03:43:14.912Z,17.20
2019-01-06T03:45:58.323Z,18.07
2019-01-06T03:49:04.800Z,17.53
2019-01-06T03:52:04.219Z,17.23
2019-01-06T03:55:09.405Z,17.27
2019-01-06T03:57:59.639Z,18.63
2019-01-06T04:00:51.493Z,16.77
2019-01-06T04:03:45.815Z,19.00
2019-01-06T04:06:44.867Z,18.70
2019-01-06T04:09:38.996Z,17.50
2019-01-06T04:12:27.466Z,18.40
2019-01-06T04:15:30.218Z,18.80
2019-01-06T04:18:29.452Z,18.23
2019-01-06T04:21:35.438Z,18.27
2019-01-06T04:24:20.392Z,16.90
2019-01-06T04:27:11.859Z,16.87
2019-01-06T04:30:20.073Z,16.93
2019-01-06T04:33:08.592Z,17.23
2019-01-06T04:35:57.280Z,17.20
2019-01-06T04:39:05.430Z,17.27
2019-01-06T04:41:59.607Z,17.30
2019-01-06T04:44:49.624Z,19.17
2019-01-06T04:47:34.352Z,17.90
2019-01-06T04:50:24.536Z,18.30
2019-01-06T04:53:09.542Z,17.40
2019-01-06T04:55:58.216Z,17.47
2019-01-06T04:58:48.529Z,16.33
2019-01-06T05:01:49.798Z,15.80
2019-01-06T05:04:38.488Z,16.40
2019-01-06T05:07:34.325Z,15.23
2019-01-06T05:10:36.896Z,14.53
2019-01-06T05:13:33.429Z,16.10
2019-01-06T05:16:29.416Z,15.50
2019-01-06T05:19:18.452Z,15.07
2019-01-06T05:22:26.885Z,16.90
2019-01-06T05:25:20.030Z,14.80
2019-01-06T05:28:08.861Z,15.30
2019-01-06T05:30:59.061Z,16.67
2019-01-06T05:33:47.420Z,16.67
2019-01-06T05:36:46.479Z,16.53
2019-01-06T05:39:35.621Z,17.20
2019-01-06T05:42:24.445Z,15.90
2019-01-06T05:45:14.541Z,16.37
2019-01-06T05:48:07.338Z,16.60
2019-01-06T05:51:00.653Z,14.87
2019-01-06T05:53:49.287Z,16.07
2019-01-06T05:56:28.234Z,15.90
2019-01-06T05:59:14.886Z,15.30
2019-01-06T06:02:08.098Z,15.40
2019-01-06T06:04:58.140Z,14.70
2019-01-06T06:07:46.958Z,15.30
2019-01-06T06:10:35.785Z,15.40
2019-01-06T06:13:24.724Z,15.43
2019-01-06T06:16:13.594Z,15.47
2019-01-06T06:19:03.700Z,14.73
2019-01-06T06:21:51.787Z,13.43
2019-01-06T06:24:40.945Z,15.27
2019-01-06T06:27:30.980Z,13.97
2019-01-06T06:30:20.051Z,14.33
2019-01-06T06:33:04.746Z,14.37
2019-01-06T06:35:56.553Z,14.80
2019-01-06T06:38:50.021Z,13.33
2019-01-06T06:41:51.931Z,14.30
2019-01-06T06:44:41.255Z,14.90
2019-01-06T06:47:42.091Z,12.70
2019-01-06T06:50:31.592Z,12.37
2019-01-06T06:53:20.606Z,13.20
2019-01-06T06:56:23.217Z,13.70
2019-01-06T06:59:11.358Z,13.83
2019-01-06T07:02:50.453Z,15.07
2019-01-06T07:05:42.690Z,13.57
2019-01-06T07:08:32.875Z,13.20
2019-01-06T07:11:28.280Z,13.13
2019-01-06T07:14:25.616Z,12.63
2019-01-06T07:17:57.707Z,13.17
2019-01-06T07:21:03.032Z,13.00
2019-01-06T07:23:50.278Z,12.80
2019-01-06T07:26:49.556Z,13.23
2019-01-06T07:29:39.554Z,13.17
2019-01-06T07:32:32.473Z,13.10
2019-01-06T07:35:20.972Z,13.60
2019-01-06T07:38:09.815Z,13.00
2019-01-06T07:40:58.613Z,13.50
2019-01-06T07:43:43.542Z,13.10
2019-01-06T07:46:33.492Z,12.80
2019-01-06T07:49:34.903Z,12.10
2019-01-06T07:52:18.890Z,13.10
2019-01-06T07:55:07.930Z,13.30
2019-01-06T07:58:05.010Z,12.80
2019-01-06T08:00:53.853Z,11.80
2019-01-06T08:03:58.867Z,12.00
2019-01-06T08:06:49.257Z,12.37
2019-01-06T08:09:31.305Z,11.87
2019-01-06T08:12:34.051Z,11.70
2019-01-06T08:15:23.289Z,11.90
2019-01-06T08:18:12.704Z,12.40
2019-01-06T08:21:09.135Z,11.60
2019-01-06T08:24:02.362Z,12.03
2019-01-06T08:26:52.351Z,10.93
2019-01-06T08:29:42.488Z,11.23
2019-01-06T08:32:44.888Z,11.10
2019-01-06T08:35:35.376Z,11.33
2019-01-06T08:38:28.419Z,11.30
2019-01-06T08:41:32.970Z,11.67
2019-01-06T08:44:18.074Z,12.20
2019-01-06T08:47:07.369Z,11.70
2019-01-06T08:50:01.822Z,11.80
2019-01-06T08:52:52.244Z,11.10
2019-01-06T08:55:40.952Z,11.43
2019-01-06T08:58:29.688Z,11.53
2019-01-06T09:01:18.558Z,10.90
2019-01-06T09:04:07.377Z,10.80
2019-01-06T09:06:46.470Z,11.23
2019-01-06T09:09:45.682Z,11.17
2019-01-06T09:12:32.870Z,11.80
2019-01-06T09:15:32.339Z,10.50
2019-01-06T09:18:13.170Z,10.90
2019-01-06T09:21:02.268Z,10.83
2019-01-06T09:23:49.664Z,10.13
2019-01-06T09:26:54.853Z,10.97
2019-01-06T09:29:54.028Z,10.83
2019-01-06T09:32:54.568Z,10.83
2019-01-06T09:35:56.906Z,11.20
2019-01-06T09:38:52.964Z,11.33
2019-01-06T09:41:43.540Z,11.90
2019-01-06T09:44:33.577Z,12.13
2019-01-06T09:47:35.854Z,13.03
2019-01-06T09:50:24.580Z,14.40
2019-01-06T09:53:13.520Z,13.77
2019-01-06T09:56:21.451Z,13.30
2019-01-06T09:59:10.374Z,11.80
2019-01-06T10:02:06.663Z,12.30
2019-01-06T10:05:06.050Z,12.60
2019-01-06T10:08:14.682Z,11.67
2019-01-06T10:11:16.529Z,11.47
2019-01-06T10:14:12.039Z,13.20
2019-01-06T10:17:11.212Z,12.00
2019-01-06T10:20:13.967Z,12.53
2019-01-06T10:23:02.695Z,12.10
2019-01-06T10:25:53.093Z,13.13
2019-01-06T10:28:49.225Z,14.20
2019-01-06T10:31:39.482Z,13.17
2019-01-06T10:34:28.090Z,13.10
2019-01-06T10:37:31.392Z,12.47
2019-01-06T10:40:27.425Z,12.60
2019-01-06T10:43:17.650Z,12.30
2019-01-06T10:46:07.781Z,12.30
2019-01-06T10:49:03.418Z,12.67
2019-01-06T10:51:51.998Z,12.67
2019-01-06T10:54:57.614Z,13.20
2019-01-06T10:57:47.002Z,12.60
2019-01-06T11:00:43.288Z,12.97
2019-01-06T11:03:33.369Z,12.60
2019-01-06T11:06:23.646Z,11.97
2019-01-06T11:09:19.835Z,12.17
2019-01-06T11:12:16.444Z,11.70
2019-01-06T11:15:18.764Z,11.90
2019-01-06T11:18:08.232Z,13.50
2019-01-06T11:24:59.458Z,12.53
2019-01-06T11:46:38.998Z,11.50
2019-01-06T11:49:47.807Z,14.03
2019-01-06T11:52:43.934Z,13.67
2019-01-06T11:55:32.472Z,12.90
2019-01-06T11:58:21.459Z,13.40
2019-01-06T12:01:17.579Z,12.50
2019-01-06T12:04:07.760Z,13.00
2019-01-06T12:07:08.780Z,12.10
2019-01-06T12:09:57.961Z,13.23
2019-01-06T12:12:51.048Z,12.50
2019-01-06T12:15:42.201Z,12.57
2019-01-06T12:18:47.550Z,14.00
2019-01-06T12:21:52.770Z,11.83
2019-01-06T12:24:43.871Z,11.40
2019-01-06T12:27:32.500Z,11.70
2019-01-06T12:30:33.896Z,12.70
2019-01-06T12:33:21.952Z,20.70
2019-01-06T12:36:10.564Z,18.63
2019-01-06T12:39:13.213Z,13.40
2019-01-06T12:42:09.125Z,14.87
2019-01-06T12:45:11.648Z,11.70
2019-01-06T12:48:00.539Z,12.73
2019-01-06T12:51:05.704Z,12.00
2019-01-06T12:54:01.152Z,12.00
2019-01-06T12:56:51.566Z,11.80
2019-01-06T12:59:40.261Z,12.40
2019-01-06T13:02:25.912Z,12.73
2019-01-06T13:05:18.990Z,12.17
2019-01-06T13:08:24.208Z,12.27
2019-01-06T13:11:12.918Z,12.37
2019-01-06T13:14:03.148Z,11.13
2019-01-06T13:17:06.957Z,12.30
2019-01-06T13:19:55.748Z,11.90
2019-01-06T13:22:47.528Z,11.63
2019-01-06T13:25:36.158Z,11.70
2019-01-06T13:28:25.457Z,12.20
2019-01-06T13:31:18.509Z,11.60
2019-01-06T13:34:17.627Z,11.30
2019-01-06T13:37:11.766Z,11.80
2019-01-06T13:40:04.644Z,12.20
2019-01-06T13:42:54.452Z,12.70
2019-01-06T13:45:53.910Z,11.30
2019-01-06T13:48:42.820Z,11.70
2019-01-06T13:51:31.868Z,12.27
2019-01-06T13:54:34.526Z,12.87
2019-01-06T13:57:24.686Z,10.27
2019-01-06T14:00:13.356Z,11.90
2019-01-06T14:03:03.674Z,12.30
2019-01-06T14:05:59.778Z,11.37
2019-01-06T14:08:46.989Z,12.03
2019-01-06T14:11:40.352Z,10.33
2019-01-06T14:14:29.362Z,11.53
2019-01-06T14:17:18.456Z,11.60
2019-01-06T14:20:07.500Z,11.47
2019-01-06T14:22:58.233Z,11.00
2019-01-06T14:26:06.911Z,13.60
2019-01-06T14:28:58.058Z,14.40
2019-01-06T14:31:49.794Z,14.10
2019-01-06T14:34:34.052Z,15.40
2019-01-06T14:37:23.163Z,14.07
2019-01-06T14:40:13.990Z,14.20
2019-01-06T14:43:14.104Z,14.10
2019-01-06T14:46:02.532Z,13.17
2019-01-06T15:08:18.570Z,13.40
2019-01-06T15:11:07.362Z,12.73
2019-01-06T15:13:56.193Z,12.40
2019-01-06T15:16:45.109Z,12.07
2019-01-06T15:19:36.514Z,11.30
2019-01-06T15:22:25.474Z,11.43
2019-01-06T15:25:15.813Z,12.37
2019-01-06T15:28:07.549Z,12.40
2019-01-06T15:31:06.418Z,11.90
2019-01-06T15:33:53.143Z,12.60
2019-01-06T15:36:42.306Z,12.03
2019-01-06T15:39:32.319Z,12.17
2019-01-06T15:42:28.531Z,12.10
2019-01-06T15:45:27.904Z,12.30
2019-01-06T15:48:33.272Z,12.90
2019-01-06T15:51:24.044Z,11.60
2019-01-06T15:54:32.479Z,11.50
2019-01-06T15:57:34.312Z,11.70
2019-01-06T16:00:44.136Z,11.30
2019-01-06T16:03:43.142Z,10.87
2019-01-06T16:06:42.096Z,10.70
2019-01-06T16:09:32.084Z,11.13
2019-01-06T16:12:21.164Z,11.30
2019-01-06T16:15:13.838Z,11.57
2019-01-06T16:18:16.389Z,10.70
2019-01-06T16:21:12.524Z,11.50
2019-01-06T16:24:12.105Z,11.80
2019-01-06T16:27:00.644Z,11.63
2019-01-06T16:29:48.138Z,10.53
2019-01-06T16:32:50.421Z,11.20
2019-01-06T16:35:40.650Z,10.70
2019-01-06T16:38:36.492Z,11.27
2019-01-06T16:41:45.130Z,11.30
2019-01-06T16:44:35.173Z,10.30
2019-01-06T16:47:23.932Z,10.97
2019-01-06T16:50:13.936Z,11.33
2019-01-06T16:53:10.248Z,11.30
2019-01-06T16:55:58.989Z,11.73
2019-01-06T16:58:49.333Z,11.70
2019-01-06T17:01:42.444Z,11.27
2019-01-06T17:04:35.715Z,11.20
2019-01-06T17:07:28.810Z,11.10
2019-01-06T17:10:22.037Z,10.70
2019-01-06T17:13:18.096Z,11.60
2019-01-06T17:16:04.255Z,10.67
2019-01-06T17:18:46.388Z,11.80
2019-01-06T17:21:35.212Z,11.60
2019-01-06T17:24:34.633Z,12.23
2019-01-06T17:27:33.935Z,11.90
2019-01-06T17:30:30.295Z,12.23
2019-01-06T17:33:21.812Z,12.53
2019-01-06T17:36:10.329Z,11.97
2019-01-06T17:38:54.605Z,13.43
2019-01-06T17:41:47.778Z,12.60
2019-01-06T17:44:47.080Z,13.40
2019-01-06T17:47:37.094Z,12.30
2019-01-06T17:50:27.336Z,12.63
2019-01-06T17:53:29.621Z,11.80
2019-01-06T17:56:22.971Z,12.97
2019-01-06T17:59:19.066Z,12.93
2019-01-06T18:02:24.591Z,12.80
2019-01-06T18:05:32.941Z,12.83
2019-01-06T18:08:21.900Z,13.13
2019-01-06T18:11:24.032Z,13.00
2019-01-06T18:14:12.944Z,12.37
2019-01-06T18:17:01.776Z,12.77
2019-01-06T18:19:54.755Z,13.10
2019-01-06T18:22:38.625Z,12.53
2019-01-06T18:25:28.836Z,12.90
2019-01-06T18:28:17.802Z,13.60
2019-01-06T18:31:17.186Z,12.90
2019-01-06T18:34:06.108Z,13.33
2019-01-06T18:36:55.488Z,13.40
2019-01-06T18:39:44.358Z,13.40
2019-01-06T18:42:43.130Z,13.03
2019-01-06T18:45:40.828Z,12.83
2019-01-06T18:48:30.060Z,13.07
2019-01-06T18:51:31.906Z,13.13
2019-01-06T18:54:31.538Z,13.00
2019-01-06T18:57:20.457Z,13.50
2019-01-06T19:00:16.502Z,13.10
2019-01-06T19:03:01.333Z,13.20
2019-01-06T19:05:51.980Z,14.47
2019-01-06T19:09:02.402Z,14.07
2019-01-06T19:12:06.065Z,15.30
2019-01-06T19:15:02.368Z,15.30
2019-01-06T19:18:02.031Z,14.90
2019-01-06T19:20:50.866Z,13.17
2019-01-06T19:23:50.021Z,14.83
2019-01-06T19:26:41.737Z,13.57
2019-01-06T19:29:31.959Z,14.10
2019-01-06T19:32:27.947Z,14.20
2019-01-06T19:35:27.270Z,14.50
2019-01-06T19:38:16.020Z,13.27
2019-01-06T19:41:09.220Z,13.23
2019-01-06T19:43:57.801Z,12.80
2019-01-06T19:46:46.534Z,14.47
2019-01-06T19:49:36.347Z,14.73
2019-01-06T19:52:34.872Z,15.80
2019-01-06T19:55:40.424Z,14.37
2019-01-06T19:58:40.329Z,14.90
2019-01-06T20:01:39.408Z,14.40
2019-01-06T20:07:25.681Z,15.47
2019-01-06T20:10:18.504Z,14.60
2019-01-06T20:13:23.986Z,14.43
2019-01-06T20:16:09.364Z,16.10
2019-01-06T20:18:58.114Z,15.90
2019-01-06T20:21:57.548Z,15.07
2019-01-06T20:24:59.521Z,16.77
2019-01-06T20:27:59.851Z,14.40
2019-01-06T20:31:02.005Z,17.20
2019-01-06T20:33:51.104Z,17.30
2019-01-06T20:36:40.152Z,16.30
2019-01-06T20:39:41.614Z,16.53
2019-01-06T20:42:24.067Z,16.47
2019-01-06T20:45:14.221Z,18.40
2019-01-06T20:48:15.957Z,17.40
2019-01-06T20:51:06.150Z,17.63
2019-01-06T20:54:11.551Z,17.00
2019-01-06T20:57:11.522Z,17.10
2019-01-06T21:00:00.259Z,17.90
2019-01-06T21:02:59.177Z,17.47
2019-01-06T21:06:07.452Z,17.10
2019-01-06T21:08:57.460Z,16.53
2019-01-06T21:11:50.642Z,14.97
2019-01-06T21:14:46.818Z,16.90
2019-01-06T21:17:35.884Z,15.13
2019-01-06T21:20:32.019Z,16.63
2019-01-06T21:23:22.223Z,16.10
2019-01-06T21:26:14.710Z,15.87
2019-01-06T21:29:11.071Z,16.97
2019-01-06T21:31:59.850Z,16.10
2019-01-06T21:35:02.187Z,14.90
2019-01-06T21:38:01.529Z,16.20
2019-01-06T21:40:52.386Z,14.50
2019-01-06T21:43:42.935Z,14.70
2019-01-06T21:46:32.189Z,15.33
2019-01-06T21:49:31.212Z,14.50
2019-01-06T21:52:31.532Z,14.77
2019-01-06T21:55:36.578Z,15.03
2019-01-06T21:58:23.135Z,15.47
2019-01-06T22:01:12.067Z,13.87
2019-01-06T22:04:05.038Z,13.63
2019-01-06T22:06:58.024Z,14.90
2019-01-06T22:09:48.220Z,15.27
2019-01-06T22:12:38.232Z,15.60
2019-01-06T22:15:27.020Z,15.10
2019-01-06T22:18:17.020Z,14.40
2019-01-06T22:21:13.434Z,14.70
2019-01-06T22:24:16.492Z,15.73
2019-01-06T22:27:05.409Z,14.63
2019-01-06T22:29:55.565Z,15.10
2019-01-06T22:32:50.131Z,14.73
2019-01-06T22:35:38.982Z,14.13
2019-01-06T22:38:33.910Z,14.50
2019-01-06T22:41:22.524Z,15.17
2019-01-06T22:44:09.060Z,14.17
2019-01-06T22:47:11.138Z,14.17
2019-01-06T22:50:13.624Z,14.57
2019-01-06T22:53:15.728Z,14.60
2019-01-06T22:56:21.918Z,12.53
2019-01-06T22:59:10.518Z,12.83
2019-01-06T23:02:03.800Z,14.33
2019-01-06T23:04:52.624Z,12.93
2019-01-06T23:07:42.671Z,12.83
2019-01-06T23:10:31.668Z,12.10
2019-01-06T23:13:38.080Z,12.30
2019-01-06T23:16:40.479Z,12.67
2019-01-06T23:19:39.638Z,12.17
2019-01-06T23:22:30.540Z,13.13
2019-01-06T23:25:19.428Z,12.87
2019-01-06T23:28:13.530Z,13.73
2019-01-06T23:31:06.876Z,13.10
2019-01-06T23:33:55.740Z,13.70
2019-01-06T23:36:46.018Z,14.47
2019-01-06T23:39:38.850Z,13.80
2019-01-06T23:42:27.313Z,15.27
2019-01-06T23:45:17.991Z,15.13
2019-01-06T23:48:15.266Z,14.80
2019-01-06T23:51:23.388Z,14.97
2019-01-06T23:54:22.354Z,13.30
2019-01-06T23:57:14.700Z,14.63
